sensor_id;sensor_type;location;lat;lon;timestamp;P1;durP1;ratioP1;P2;durP2;ratioP2
30743;SDS011;17486;46.738;7.622;2023-06-14T00:02:11;9.93;;;5.35;;
30743;SDS011;17486;46.738;7.622;2023-06-14T00:04:36;7.10;;;5.53;;
30743;SDS011;17486;46.738;7.622;2023-06-14T00:07:02;6.30;;;5.50;;
30743;SDS011;17486;46.738;7.622;2023-06-14T00:09:28;7.90;;;6.45;;
30743;SDS011;17486;46.738;7.622;2023-06-14T00:11:53;6.50;;;5.68;;
30743;SDS011;17486;46.738;7.622;2023-06-14T00:14:19;7.95;;;6.65;;
30743;SDS011;17486;46.738;7.622;2023-06-14T00:16:44;6.70;;;6.10;;
30743;SDS011;17486;46.738;7.622;2023-06-14T00:19:10;7.10;;;6.35;;
30743;SDS011;17486;46.738;7.622;2023-06-14T00:21:36;7.25;;;6.38;;
30743;SDS011;17486;46.738;7.622;2023-06-14T00:24:03;7.18;;;6.25;;
30743;SDS011;17486;46.738;7.622;2023-06-14T00:26:29;6.28;;;5.57;;
30743;SDS011;17486;46.738;7.622;2023-06-14T00:28:54;6.43;;;5.47;;
30743;SDS011;17486;46.738;7.622;2023-06-14T00:31:21;6.15;;;5.55;;
30743;SDS011;17486;46.738;7.622;2023-06-14T00:33:47;9.90;;;5.80;;
30743;SDS011;17486;46.738;7.622;2023-06-14T00:36:12;6.85;;;6.18;;
30743;SDS011;17486;46.738;7.622;2023-06-14T00:38:38;7.22;;;6.32;;
30743;SDS011;17486;46.738;7.622;2023-06-14T00:41:03;7.03;;;5.85;;
30743;SDS011;17486;46.738;7.622;2023-06-14T00:43:29;7.10;;;5.57;;
30743;SDS011;17486;46.738;7.622;2023-06-14T00:45:54;7.00;;;6.35;;
30743;SDS011;17486;46.738;7.622;2023-06-14T00:48:20;7.80;;;5.60;;
30743;SDS011;17486;46.738;7.622;2023-06-14T00:50:46;7.45;;;5.07;;
30743;SDS011;17486;46.738;7.622;2023-06-14T00:53:13;7.47;;;5.85;;
30743;SDS011;17486;46.738;7.622;2023-06-14T00:55:40;6.45;;;5.68;;
30743;SDS011;17486;46.738;7.622;2023-06-14T00:58:06;6.10;;;5.15;;
30743;SDS011;17486;46.738;7.622;2023-06-14T01:00:31;12.30;;;6.25;;
30743;SDS011;17486;46.738;7.622;2023-06-14T01:02:57;8.70;;;5.68;;
30743;SDS011;17486;46.738;7.622;2023-06-14T01:05:22;6.88;;;5.25;;
30743;SDS011;17486;46.738;7.622;2023-06-14T01:07:59;6.75;;;5.70;;
30743;SDS011;17486;46.738;7.622;2023-06-14T01:10:59;6.00;;;5.38;;
30743;SDS011;17486;46.738;7.622;2023-06-14T01:13:38;8.80;;;5.45;;
30743;SDS011;17486;46.738;7.622;2023-06-14T01:16:05;5.60;;;5.10;;
30743;SDS011;17486;46.738;7.622;2023-06-14T01:18:32;6.38;;;5.25;;
30743;SDS011;17486;46.738;7.622;2023-06-14T01:20:59;5.35;;;4.85;;
30743;SDS011;17486;46.738;7.622;2023-06-14T01:23:30;7.95;;;5.90;;
30743;SDS011;17486;46.738;7.622;2023-06-14T01:25:58;5.78;;;5.18;;
30743;SDS011;17486;46.738;7.622;2023-06-14T01:28:25;5.97;;;5.38;;
30743;SDS011;17486;46.738;7.622;2023-06-14T01:33:26;5.70;;;5.15;;
30743;SDS011;17486;46.738;7.622;2023-06-14T01:35:53;6.85;;;5.85;;
30743;SDS011;17486;46.738;7.622;2023-06-14T01:38:21;9.30;;;6.70;;
30743;SDS011;17486;46.738;7.622;2023-06-14T01:40:49;6.53;;;5.28;;
30743;SDS011;17486;46.738;7.622;2023-06-14T01:43:16;6.00;;;5.40;;
30743;SDS011;17486;46.738;7.622;2023-06-14T01:45:44;7.00;;;5.47;;
30743;SDS011;17486;46.738;7.622;2023-06-14T01:48:12;5.72;;;5.13;;
30743;SDS011;17486;46.738;7.622;2023-06-14T01:50:37;7.18;;;5.60;;
30743;SDS011;17486;46.738;7.622;2023-06-14T08:03:23;8.80;;;4.90;;
30743;SDS011;17486;46.738;7.622;2023-06-14T08:05:49;5.40;;;4.90;;
30743;SDS011;17486;46.738;7.622;2023-06-14T08:08:14;6.45;;;5.55;;
30743;SDS011;17486;46.738;7.622;2023-06-14T08:10:40;9.10;;;5.78;;
30743;SDS011;17486;46.738;7.622;2023-06-14T08:13:05;6.20;;;5.45;;
30743;SDS011;17486;46.738;7.622;2023-06-14T08:15:30;6.43;;;5.70;;
30743;SDS011;17486;46.738;7.622;2023-06-14T08:17:56;6.95;;;5.82;;
30743;SDS011;17486;46.738;7.622;2023-06-14T08:20:22;6.10;;;5.50;;
30743;SDS011;17486;46.738;7.622;2023-06-14T08:22:49;7.47;;;5.65;;
30743;SDS011;17486;46.738;7.622;2023-06-14T08:25:14;8.73;;;5.70;;
30743;SDS011;17486;46.738;7.622;2023-06-14T08:27:40;7.97;;;5.75;;
30743;SDS011;17486;46.738;7.622;2023-06-14T08:30:05;5.57;;;5.03;;
30743;SDS011;17486;46.738;7.622;2023-06-14T08:32:33;7.03;;;5.47;;
30743;SDS011;17486;46.738;7.622;2023-06-14T08:34:58;6.20;;;5.47;;
30743;SDS011;17486;46.738;7.622;2023-06-14T08:37:23;6.93;;;5.28;;
30743;SDS011;17486;46.738;7.622;2023-06-14T08:39:49;6.45;;;5.00;;
30743;SDS011;17486;46.738;7.622;2023-06-14T08:42:15;8.07;;;5.10;;
30743;SDS011;17486;46.738;7.622;2023-06-14T08:44:42;6.88;;;4.88;;
30743;SDS011;17486;46.738;7.622;2023-06-14T08:47:07;6.13;;;4.78;;
30743;SDS011;17486;46.738;7.622;2023-06-14T08:49:35;5.50;;;4.63;;
30743;SDS011;17486;46.738;7.622;2023-06-14T08:52:02;8.90;;;4.90;;
30743;SDS011;17486;46.738;7.622;2023-06-14T08:54:32;8.05;;;4.43;;
30743;SDS011;17486;46.738;7.622;2023-06-14T08:57:02;7.72;;;5.10;;
30743;SDS011;17486;46.738;7.622;2023-06-14T08:59:29;9.40;;;5.35;;
30743;SDS011;17486;46.738;7.622;2023-06-14T09:01:56;5.80;;;5.03;;
30743;SDS011;17486;46.738;7.622;2023-06-14T09:04:22;5.75;;;4.63;;
30743;SDS011;17486;46.738;7.622;2023-06-14T09:06:49;8.25;;;4.90;;
30743;SDS011;17486;46.738;7.622;2023-06-14T09:09:21;7.13;;;4.85;;
30743;SDS011;17486;46.738;7.622;2023-06-14T09:11:48;7.72;;;4.63;;
30743;SDS011;17486;46.738;7.622;2023-06-14T09:14:14;6.75;;;5.28;;
30743;SDS011;17486;46.738;7.622;2023-06-14T09:16:40;5.00;;;4.35;;
30743;SDS011;17486;46.738;7.622;2023-06-14T09:19:05;5.65;;;4.78;;
30743;SDS011;17486;46.738;7.622;2023-06-14T09:21:33;6.05;;;5.25;;
30743;SDS011;17486;46.738;7.622;2023-06-14T09:24:01;5.85;;;5.20;;
30743;SDS011;17486;46.738;7.622;2023-06-14T09:26:27;6.95;;;4.78;;
30743;SDS011;17486;46.738;7.622;2023-06-14T09:28:53;5.43;;;4.68;;
30743;SDS011;17486;46.738;7.622;2023-06-14T09:31:20;10.07;;;5.57;;
30743;SDS011;17486;46.738;7.622;2023-06-14T09:33:49;7.05;;;5.38;;
30743;SDS011;17486;46.738;7.622;2023-06-14T09:36:21;5.68;;;4.93;;
30743;SDS011;17486;46.738;7.622;2023-06-14T09:41:19;7.28;;;5.10;;
30743;SDS011;17486;46.738;7.622;2023-06-14T09:43:45;7.10;;;4.95;;
30743;SDS011;17486;46.738;7.622;2023-06-14T09:46:13;6.82;;;4.85;;
30743;SDS011;17486;46.738;7.622;2023-06-14T09:48:38;6.25;;;4.75;;
30743;SDS011;17486;46.738;7.622;2023-06-14T09:51:07;5.35;;;4.72;;
30743;SDS011;17486;46.738;7.622;2023-06-14T09:53:35;8.07;;;5.35;;
30743;SDS011;17486;46.738;7.622;2023-06-14T09:56:02;7.03;;;4.68;;
30743;SDS011;17486;46.738;7.622;2023-06-14T09:58:29;6.28;;;5.22;;
30743;SDS011;17486;46.738;7.622;2023-06-14T10:00:57;9.23;;;5.57;;
30743;SDS011;17486;46.738;7.622;2023-06-14T10:03:25;5.63;;;4.95;;
30743;SDS011;17486;46.738;7.622;2023-06-14T10:05:53;5.68;;;5.07;;
30743;SDS011;17486;46.738;7.622;2023-06-14T10:08:26;5.57;;;5.00;;
30743;SDS011;17486;46.738;7.622;2023-06-14T10:10:55;5.40;;;4.90;;
30743;SDS011;17486;46.738;7.622;2023-06-14T10:13:21;6.85;;;4.80;;
30743;SDS011;17486;46.738;7.622;2023-06-14T10:15:52;7.00;;;4.88;;
30743;SDS011;17486;46.738;7.622;2023-06-14T10:18:31;5.72;;;4.90;;
30743;SDS011;17486;46.738;7.622;2023-06-14T10:21:04;7.47;;;5.10;;
30743;SDS011;17486;46.738;7.622;2023-06-14T10:23:40;7.45;;;4.70;;
30743;SDS011;17486;46.738;7.622;2023-06-14T10:26:08;6.70;;;4.75;;
30743;SDS011;17486;46.738;7.622;2023-06-14T10:28:36;7.40;;;4.95;;
30743;SDS011;17486;46.738;7.622;2023-06-14T10:31:03;5.90;;;4.63;;
30743;SDS011;17486;46.738;7.622;2023-06-14T10:33:32;6.68;;;4.88;;
30743;SDS011;17486;46.738;7.622;2023-06-14T10:46:39;8.38;;;4.90;;
30743;SDS011;17486;46.738;7.622;2023-06-14T10:49:06;7.53;;;4.97;;
30743;SDS011;17486;46.738;7.622;2023-06-14T10:51:38;6.70;;;4.65;;
30743;SDS011;17486;46.738;7.622;2023-06-14T10:54:14;5.45;;;4.65;;
30743;SDS011;17486;46.738;7.622;2023-06-14T10:56:47;5.00;;;4.50;;
30743;SDS011;17486;46.738;7.622;2023-06-14T10:59:14;6.78;;;5.15;;
30743;SDS011;17486;46.738;7.622;2023-06-14T11:04:52;6.10;;;5.10;;
30743;SDS011;17486;46.738;7.622;2023-06-14T11:12:35;5.30;;;4.78;;
30743;SDS011;17486;46.738;7.622;2023-06-14T11:15:05;8.40;;;5.25;;
30743;SDS011;17486;46.738;7.622;2023-06-14T11:17:30;7.22;;;4.95;;
30743;SDS011;17486;46.738;7.622;2023-06-14T11:20:10;5.45;;;4.95;;
30743;SDS011;17486;46.738;7.622;2023-06-14T11:22:44;5.75;;;4.97;;
30743;SDS011;17486;46.738;7.622;2023-06-14T11:25:13;6.90;;;4.88;;
30743;SDS011;17486;46.738;7.622;2023-06-14T11:27:42;5.68;;;4.95;;
30743;SDS011;17486;46.738;7.622;2023-06-14T11:30:08;6.75;;;4.97;;
30743;SDS011;17486;46.738;7.622;2023-06-14T11:32:35;5.38;;;4.97;;
30743;SDS011;17486;46.738;7.622;2023-06-14T11:35:02;5.93;;;4.95;;
30743;SDS011;17486;46.738;7.622;2023-06-14T11:37:28;5.50;;;4.70;;
30743;SDS011;17486;46.738;7.622;2023-06-14T11:39:58;9.57;;;5.07;;
30743;SDS011;17486;46.738;7.622;2023-06-14T11:42:28;8.03;;;4.80;;
30743;SDS011;17486;46.738;7.622;2023-06-14T11:44:55;4.93;;;4.50;;
30743;SDS011;17486;46.738;7.622;2023-06-14T11:47:21;8.60;;;4.70;;
30743;SDS011;17486;46.738;7.622;2023-06-14T11:49:47;7.00;;;5.10;;
30743;SDS011;17486;46.738;7.622;2023-06-14T11:52:13;7.28;;;5.25;;
30743;SDS011;17486;46.738;7.622;2023-06-14T11:54:38;6.82;;;5.07;;
30743;SDS011;17486;46.738;7.622;2023-06-14T11:57:07;5.40;;;4.90;;
30743;SDS011;17486;46.738;7.622;2023-06-14T11:59:41;5.55;;;5.03;;
30743;SDS011;17486;46.738;7.622;2023-06-14T12:02:09;7.80;;;5.30;;
30743;SDS011;17486;46.738;7.622;2023-06-14T12:04:40;7.38;;;4.90;;
30743;SDS011;17486;46.738;7.622;2023-06-14T12:07:10;5.60;;;4.60;;
30743;SDS011;17486;46.738;7.622;2023-06-14T12:10:04;6.55;;;5.18;;
30743;SDS011;17486;46.738;7.622;2023-06-14T12:12:34;5.55;;;4.90;;
30743;SDS011;17486;46.738;7.622;2023-06-14T12:15:02;4.97;;;4.47;;
30743;SDS011;17486;46.738;7.622;2023-06-14T12:17:31;5.85;;;4.60;;
30743;SDS011;17486;46.738;7.622;2023-06-14T12:19:58;5.88;;;4.93;;
30743;SDS011;17486;46.738;7.622;2023-06-14T12:22:23;5.20;;;4.70;;
30743;SDS011;17486;46.738;7.622;2023-06-14T12:24:48;9.73;;;5.30;;
30743;SDS011;17486;46.738;7.622;2023-06-14T12:27:14;6.18;;;5.57;;
30743;SDS011;17486;46.738;7.622;2023-06-14T12:29:44;6.93;;;5.20;;
30743;SDS011;17486;46.738;7.622;2023-06-14T12:32:10;5.47;;;4.95;;
30743;SDS011;17486;46.738;7.622;2023-06-14T12:34:36;6.10;;;5.50;;
30743;SDS011;17486;46.738;7.622;2023-06-14T12:37:01;7.43;;;5.07;;
30743;SDS011;17486;46.738;7.622;2023-06-14T12:39:29;10.15;;;5.60;;
30743;SDS011;17486;46.738;7.622;2023-06-14T12:41:56;7.03;;;5.30;;
30743;SDS011;17486;46.738;7.622;2023-06-14T12:44:22;5.00;;;4.50;;
30743;SDS011;17486;46.738;7.622;2023-06-14T12:46:47;7.90;;;4.85;;
30743;SDS011;17486;46.738;7.622;2023-06-14T12:49:13;6.72;;;5.00;;
30743;SDS011;17486;46.738;7.622;2023-06-14T12:51:38;7.97;;;5.07;;
30743;SDS011;17486;46.738;7.622;2023-06-14T12:54:05;5.20;;;4.70;;
30743;SDS011;17486;46.738;7.622;2023-06-14T12:56:30;7.05;;;5.03;;
30743;SDS011;17486;46.738;7.622;2023-06-14T12:58:56;7.22;;;5.40;;
30743;SDS011;17486;46.738;7.622;2023-06-14T13:01:22;7.25;;;4.88;;
30743;SDS011;17486;46.738;7.622;2023-06-14T13:03:48;7.07;;;5.20;;
30743;SDS011;17486;46.738;7.622;2023-06-14T13:06:14;5.15;;;4.65;;
30743;SDS011;17486;46.738;7.622;2023-06-14T13:08:40;8.43;;;4.95;;
30743;SDS011;17486;46.738;7.622;2023-06-14T13:11:05;8.95;;;4.40;;
30743;SDS011;17486;46.738;7.622;2023-06-14T13:13:31;9.38;;;5.20;;
30743;SDS011;17486;46.738;7.622;2023-06-14T13:15:56;5.35;;;4.82;;
30743;SDS011;17486;46.738;7.622;2023-06-14T13:18:21;7.32;;;4.88;;
30743;SDS011;17486;46.738;7.622;2023-06-14T13:20:47;6.65;;;4.95;;
30743;SDS011;17486;46.738;7.622;2023-06-14T13:23:13;5.45;;;4.95;;
30743;SDS011;17486;46.738;7.622;2023-06-14T13:25:39;6.15;;;5.20;;
30743;SDS011;17486;46.738;7.622;2023-06-14T13:28:04;6.72;;;4.97;;
30743;SDS011;17486;46.738;7.622;2023-06-14T13:30:31;7.35;;;5.05;;
30743;SDS011;17486;46.738;7.622;2023-06-14T13:32:57;4.95;;;4.38;;
30743;SDS011;17486;46.738;7.622;2023-06-14T13:35:23;6.20;;;4.82;;
30743;SDS011;17486;46.738;7.622;2023-06-14T13:37:49;5.30;;;4.80;;
30743;SDS011;17486;46.738;7.622;2023-06-14T13:40:14;7.70;;;5.30;;
30743;SDS011;17486;46.738;7.622;2023-06-14T13:42:40;6.95;;;4.88;;
30743;SDS011;17486;46.738;7.622;2023-06-14T13:45:06;5.57;;;4.80;;
30743;SDS011;17486;46.738;7.622;2023-06-14T13:47:32;8.63;;;5.03;;
30743;SDS011;17486;46.738;7.622;2023-06-14T13:49:58;6.00;;;5.00;;
30743;SDS011;17486;46.738;7.622;2023-06-14T13:52:23;7.20;;;5.22;;
30743;SDS011;17486;46.738;7.622;2023-06-14T13:54:49;7.43;;;4.47;;
30743;SDS011;17486;46.738;7.622;2023-06-14T13:57:15;7.75;;;4.70;;
30743;SDS011;17486;46.738;7.622;2023-06-14T13:59:43;8.63;;;5.00;;
30743;SDS011;17486;46.738;7.622;2023-06-14T14:02:09;5.32;;;4.82;;
30743;SDS011;17486;46.738;7.622;2023-06-14T14:04:35;6.22;;;4.65;;
30743;SDS011;17486;46.738;7.622;2023-06-14T14:07:01;5.65;;;5.00;;
30743;SDS011;17486;46.738;7.622;2023-06-14T14:09:27;7.63;;;4.50;;
30743;SDS011;17486;46.738;7.622;2023-06-14T14:11:52;5.88;;;4.53;;
30743;SDS011;17486;46.738;7.622;2023-06-14T14:14:18;7.55;;;4.90;;
30743;SDS011;17486;46.738;7.622;2023-06-14T14:16:43;4.97;;;4.50;;
30743;SDS011;17486;46.738;7.622;2023-06-14T14:19:09;5.28;;;4.80;;
30743;SDS011;17486;46.738;7.622;2023-06-14T14:21:34;5.88;;;4.97;;
30743;SDS011;17486;46.738;7.622;2023-06-14T14:24:00;5.25;;;4.53;;
30743;SDS011;17486;46.738;7.622;2023-06-14T14:26:26;5.63;;;5.03;;
30743;SDS011;17486;46.738;7.622;2023-06-14T14:28:51;4.80;;;4.40;;
30743;SDS011;17486;46.738;7.622;2023-06-14T14:31:17;6.32;;;4.95;;
30743;SDS011;17486;46.738;7.622;2023-06-14T14:33:43;4.95;;;4.45;;
30743;SDS011;17486;46.738;7.622;2023-06-14T14:36:08;5.22;;;4.72;;
30743;SDS011;17486;46.738;7.622;2023-06-14T14:38:34;7.50;;;5.00;;
30743;SDS011;17486;46.738;7.622;2023-06-14T14:40:59;5.63;;;4.75;;
30743;SDS011;17486;46.738;7.622;2023-06-14T14:43:25;5.25;;;4.75;;
30743;SDS011;17486;46.738;7.622;2023-06-14T14:45:51;6.55;;;4.53;;
30743;SDS011;17486;46.738;7.622;2023-06-14T14:48:17;5.88;;;5.25;;
30743;SDS011;17486;46.738;7.622;2023-06-14T14:50:42;5.70;;;4.43;;
30743;SDS011;17486;46.738;7.622;2023-06-14T14:53:08;5.63;;;4.40;;
30743;SDS011;17486;46.738;7.622;2023-06-14T14:55:33;5.75;;;4.57;;
30743;SDS011;17486;46.738;7.622;2023-06-14T14:58:01;7.10;;;4.97;;
30743;SDS011;17486;46.738;7.622;2023-06-14T15:00:27;6.13;;;4.38;;
30743;SDS011;17486;46.738;7.622;2023-06-14T15:02:53;6.32;;;4.50;;
30743;SDS011;17486;46.738;7.622;2023-06-14T15:05:18;4.40;;;4.00;;
30743;SDS011;17486;46.738;7.622;2023-06-14T15:07:44;4.38;;;4.00;;
30743;SDS011;17486;46.738;7.622;2023-06-14T15:10:10;4.97;;;4.20;;
30743;SDS011;17486;46.738;7.622;2023-06-14T15:12:36;4.72;;;4.25;;
30743;SDS011;17486;46.738;7.622;2023-06-14T15:15:02;4.70;;;3.90;;
30743;SDS011;17486;46.738;7.622;2023-06-14T15:17:28;4.75;;;4.00;;
30743;SDS011;17486;46.738;7.622;2023-06-14T15:19:54;4.55;;;3.90;;
30743;SDS011;17486;46.738;7.622;2023-06-14T15:22:19;4.40;;;4.00;;
30743;SDS011;17486;46.738;7.622;2023-06-14T15:24:45;5.50;;;3.78;;
30743;SDS011;17486;46.738;7.622;2023-06-14T15:27:13;4.25;;;3.88;;
30743;SDS011;17486;46.738;7.622;2023-06-14T15:29:40;4.25;;;3.95;;
30743;SDS011;17486;46.738;7.622;2023-06-14T15:32:06;4.88;;;3.63;;
30743;SDS011;17486;46.738;7.622;2023-06-14T15:34:32;4.72;;;4.18;;
30743;SDS011;17486;46.738;7.622;2023-06-14T15:36:58;6.03;;;4.07;;
30743;SDS011;17486;46.738;7.622;2023-06-14T15:39:23;5.38;;;4.47;;
30743;SDS011;17486;46.738;7.622;2023-06-14T15:41:52;4.43;;;3.88;;
30743;SDS011;17486;46.738;7.622;2023-06-14T15:44:17;5.95;;;3.95;;
30743;SDS011;17486;46.738;7.622;2023-06-14T15:46:43;5.47;;;3.72;;
30743;SDS011;17486;46.738;7.622;2023-06-14T15:49:09;4.93;;;3.72;;
30743;SDS011;17486;46.738;7.622;2023-06-14T15:51:35;6.28;;;3.95;;
30743;SDS011;17486;46.738;7.622;2023-06-14T15:54:04;4.13;;;3.55;;
30743;SDS011;17486;46.738;7.622;2023-06-14T15:56:29;4.75;;;3.60;;
30743;SDS011;17486;46.738;7.622;2023-06-14T15:58:55;5.22;;;3.75;;
30743;SDS011;17486;46.738;7.622;2023-06-14T16:01:22;3.92;;;3.45;;
30743;SDS011;17486;46.738;7.622;2023-06-14T16:03:48;3.30;;;3.00;;
30743;SDS011;17486;46.738;7.622;2023-06-14T16:06:13;5.15;;;3.65;;
30743;SDS011;17486;46.738;7.622;2023-06-14T16:08:39;4.13;;;3.83;;
30743;SDS011;17486;46.738;7.622;2023-06-14T16:11:04;5.32;;;3.67;;
30743;SDS011;17486;46.738;7.622;2023-06-14T16:13:30;4.55;;;3.67;;
30743;SDS011;17486;46.738;7.622;2023-06-14T16:15:55;5.55;;;3.50;;
30743;SDS011;17486;46.738;7.622;2023-06-14T16:18:20;5.38;;;3.63;;
30743;SDS011;17486;46.738;7.622;2023-06-14T16:20:46;5.07;;;3.85;;
30743;SDS011;17486;46.738;7.622;2023-06-14T16:23:12;3.85;;;3.45;;
30743;SDS011;17486;46.738;7.622;2023-06-14T16:25:38;4.72;;;3.80;;
30743;SDS011;17486;46.738;7.622;2023-06-14T16:28:05;3.75;;;3.42;;
30743;SDS011;17486;46.738;7.622;2023-06-14T16:30:30;5.35;;;3.35;;
30743;SDS011;17486;46.738;7.622;2023-06-14T16:32:55;4.63;;;3.53;;
30743;SDS011;17486;46.738;7.622;2023-06-14T16:35:22;3.88;;;3.42;;
30743;SDS011;17486;46.738;7.622;2023-06-14T16:37:47;6.45;;;4.05;;
30743;SDS011;17486;46.738;7.622;2023-06-14T16:40:13;4.10;;;3.45;;
30743;SDS011;17486;46.738;7.622;2023-06-14T16:42:38;4.10;;;3.70;;
30743;SDS011;17486;46.738;7.622;2023-06-14T16:45:04;5.18;;;3.47;;
30743;SDS011;17486;46.738;7.622;2023-06-14T16:47:30;4.38;;;3.80;;
30743;SDS011;17486;46.738;7.622;2023-06-14T16:49:55;3.92;;;3.50;;
30743;SDS011;17486;46.738;7.622;2023-06-14T16:52:20;4.45;;;3.35;;
30743;SDS011;17486;46.738;7.622;2023-06-14T16:54:46;3.88;;;3.50;;
30743;SDS011;17486;46.738;7.622;2023-06-14T16:57:11;4.60;;;3.45;;
30743;SDS011;17486;46.738;7.622;2023-06-14T16:59:36;3.83;;;3.40;;
30743;SDS011;17486;46.738;7.622;2023-06-14T17:02:02;4.25;;;3.47;;
30743;SDS011;17486;46.738;7.622;2023-06-14T17:04:29;4.55;;;3.47;;
30743;SDS011;17486;46.738;7.622;2023-06-14T17:06:55;4.97;;;3.70;;
30743;SDS011;17486;46.738;7.622;2023-06-14T17:09:21;5.88;;;4.20;;
30743;SDS011;17486;46.738;7.622;2023-06-14T17:11:46;4.28;;;3.53;;
30743;SDS011;17486;46.738;7.622;2023-06-14T17:14:11;3.97;;;3.55;;
30743;SDS011;17486;46.738;7.622;2023-06-14T17:16:37;4.55;;;3.70;;
30743;SDS011;17486;46.738;7.622;2023-06-14T17:19:03;5.25;;;3.78;;
30743;SDS011;17486;46.738;7.622;2023-06-14T17:21:30;4.38;;;3.45;;
30743;SDS011;17486;46.738;7.622;2023-06-14T17:23:56;5.13;;;3.75;;
30743;SDS011;17486;46.738;7.622;2023-06-14T17:26:21;4.10;;;3.70;;
30743;SDS011;17486;46.738;7.622;2023-06-14T17:28:47;6.43;;;3.42;;
30743;SDS011;17486;46.738;7.622;2023-06-14T17:31:12;4.30;;;3.70;;
30743;SDS011;17486;46.738;7.622;2023-06-14T17:33:37;4.43;;;4.03;;
30743;SDS011;17486;46.738;7.622;2023-06-14T17:36:03;3.90;;;3.50;;
30743;SDS011;17486;46.738;7.622;2023-06-14T17:38:29;3.80;;;3.50;;
30743;SDS011;17486;46.738;7.622;2023-06-14T17:40:55;4.35;;;3.92;;
30743;SDS011;17486;46.738;7.622;2023-06-14T17:43:23;5.13;;;3.58;;
30743;SDS011;17486;46.738;7.622;2023-06-14T17:45:48;3.92;;;3.38;;
30743;SDS011;17486;46.738;7.622;2023-06-14T17:48:14;4.57;;;3.75;;
30743;SDS011;17486;46.738;7.622;2023-06-14T17:50:39;4.25;;;3.85;;
30743;SDS011;17486;46.738;7.622;2023-06-14T17:53:05;3.70;;;3.40;;
30743;SDS011;17486;46.738;7.622;2023-06-14T17:55:30;6.28;;;4.00;;
30743;SDS011;17486;46.738;7.622;2023-06-14T17:57:56;54.78;;;48.63;;
30743;SDS011;17486;46.738;7.622;2023-06-14T18:00:21;74.20;;;66.55;;
30743;SDS011;17486;46.738;7.622;2023-06-14T18:02:48;84.30;;;74.93;;
30743;SDS011;17486;46.738;7.622;2023-06-14T18:05:13;25.27;;;22.63;;
30743;SDS011;17486;46.738;7.622;2023-06-14T18:07:39;8.68;;;5.32;;
30743;SDS011;17486;46.738;7.622;2023-06-14T18:10:05;4.93;;;4.38;;
30743;SDS011;17486;46.738;7.622;2023-06-14T18:12:31;4.82;;;3.90;;
30743;SDS011;17486;46.738;7.622;2023-06-14T18:14:56;5.68;;;3.75;;
30743;SDS011;17486;46.738;7.622;2023-06-14T18:17:21;4.65;;;4.20;;
30743;SDS011;17486;46.738;7.622;2023-06-14T18:19:47;5.70;;;3.60;;
30743;SDS011;17486;46.738;7.622;2023-06-14T18:22:12;5.80;;;3.67;;
30743;SDS011;17486;46.738;7.622;2023-06-14T18:24:37;4.57;;;3.65;;
30743;SDS011;17486;46.738;7.622;2023-06-14T18:27:03;7.53;;;4.15;;
30743;SDS011;17486;46.738;7.622;2023-06-14T18:29:29;3.75;;;3.45;;
30743;SDS011;17486;46.738;7.622;2023-06-14T18:31:55;3.78;;;3.47;;
30743;SDS011;17486;46.738;7.622;2023-06-14T18:34:22;4.95;;;3.90;;
30743;SDS011;17486;46.738;7.622;2023-06-14T18:36:48;4.90;;;3.80;;
30743;SDS011;17486;46.738;7.622;2023-06-14T18:39:13;5.65;;;3.88;;
30743;SDS011;17486;46.738;7.622;2023-06-14T18:41:39;4.20;;;3.60;;
30743;SDS011;17486;46.738;7.622;2023-06-14T18:44:05;6.28;;;4.40;;
30743;SDS011;17486;46.738;7.622;2023-06-14T18:46:30;5.55;;;3.58;;
30743;SDS011;17486;46.738;7.622;2023-06-14T18:48:56;5.47;;;3.60;;
30743;SDS011;17486;46.738;7.622;2023-06-14T18:51:21;3.75;;;3.38;;
30743;SDS011;17486;46.738;7.622;2023-06-14T18:53:47;3.92;;;3.35;;
30743;SDS011;17486;46.738;7.622;2023-06-14T18:56:12;5.55;;;3.72;;
30743;SDS011;17486;46.738;7.622;2023-06-14T18:58:38;4.18;;;3.78;;
30743;SDS011;17486;46.738;7.622;2023-06-14T19:01:03;7.65;;;3.80;;
30743;SDS011;17486;46.738;7.622;2023-06-14T19:03:29;4.25;;;3.28;;
30743;SDS011;17486;46.738;7.622;2023-06-14T19:05:55;3.83;;;3.20;;
30743;SDS011;17486;46.738;7.622;2023-06-14T19:08:22;3.78;;;3.15;;
30743;SDS011;17486;46.738;7.622;2023-06-14T19:10:48;4.40;;;3.70;;
30743;SDS011;17486;46.738;7.622;2023-06-14T19:13:13;4.05;;;3.45;;
30743;SDS011;17486;46.738;7.622;2023-06-14T19:15:39;5.75;;;3.42;;
30743;SDS011;17486;46.738;7.622;2023-06-14T19:18:04;4.63;;;4.10;;
30743;SDS011;17486;46.738;7.622;2023-06-14T19:20:31;4.43;;;3.90;;
30743;SDS011;17486;46.738;7.622;2023-06-14T19:22:57;4.50;;;3.70;;
30743;SDS011;17486;46.738;7.622;2023-06-14T19:25:23;5.65;;;4.20;;
30743;SDS011;17486;46.738;7.622;2023-06-14T19:27:49;6.35;;;3.75;;
30743;SDS011;17486;46.738;7.622;2023-06-14T19:30:15;6.03;;;4.15;;
30743;SDS011;17486;46.738;7.622;2023-06-14T19:32:41;7.90;;;4.00;;
30743;SDS011;17486;46.738;7.622;2023-06-14T19:35:07;5.25;;;4.25;;
30743;SDS011;17486;46.738;7.622;2023-06-14T19:37:33;4.32;;;3.88;;
30743;SDS011;17486;46.738;7.622;2023-06-14T19:39:59;4.30;;;3.83;;
30743;SDS011;17486;46.738;7.622;2023-06-14T19:42:24;6.25;;;4.25;;
30743;SDS011;17486;46.738;7.622;2023-06-14T19:44:50;5.90;;;4.10;;
30743;SDS011;17486;46.738;7.622;2023-06-14T19:47:16;4.90;;;3.65;;
30743;SDS011;17486;46.738;7.622;2023-06-14T19:49:41;4.40;;;3.67;;
30743;SDS011;17486;46.738;7.622;2023-06-14T19:52:07;4.35;;;3.28;;
30743;SDS011;17486;46.738;7.622;2023-06-14T19:54:32;6.35;;;3.97;;
30743;SDS011;17486;46.738;7.622;2023-06-14T19:56:58;5.30;;;4.25;;
30743;SDS011;17486;46.738;7.622;2023-06-14T19:59:23;4.15;;;3.65;;
30743;SDS011;17486;46.738;7.622;2023-06-14T20:01:48;5.80;;;3.90;;
30743;SDS011;17486;46.738;7.622;2023-06-14T20:04:14;4.07;;;3.67;;
30743;SDS011;17486;46.738;7.622;2023-06-14T20:06:39;4.80;;;3.58;;
30743;SDS011;17486;46.738;7.622;2023-06-14T20:09:05;7.38;;;4.22;;
30743;SDS011;17486;46.738;7.622;2023-06-14T20:11:36;6.90;;;4.60;;
30743;SDS011;17486;46.738;7.622;2023-06-14T20:14:02;5.97;;;4.70;;
30743;SDS011;17486;46.738;7.622;2023-06-14T20:16:29;5.57;;;4.75;;
30743;SDS011;17486;46.738;7.622;2023-06-14T20:18:55;5.25;;;3.85;;
30743;SDS011;17486;46.738;7.622;2023-06-14T20:21:23;5.10;;;4.20;;
30743;SDS011;17486;46.738;7.622;2023-06-14T20:23:49;6.40;;;4.07;;
30743;SDS011;17486;46.738;7.622;2023-06-14T20:26:14;6.53;;;4.47;;
30743;SDS011;17486;46.738;7.622;2023-06-14T20:28:40;6.35;;;4.70;;
30743;SDS011;17486;46.738;7.622;2023-06-14T20:31:06;5.88;;;4.25;;
30743;SDS011;17486;46.738;7.622;2023-06-14T20:33:32;5.88;;;4.75;;
30743;SDS011;17486;46.738;7.622;2023-06-14T20:35:59;7.43;;;4.45;;
30743;SDS011;17486;46.738;7.622;2023-06-14T20:38:24;5.35;;;4.85;;
30743;SDS011;17486;46.738;7.622;2023-06-14T20:40:50;7.20;;;4.47;;
30743;SDS011;17486;46.738;7.622;2023-06-14T20:43:17;5.65;;;5.07;;
30743;SDS011;17486;46.738;7.622;2023-06-14T20:45:43;4.68;;;4.13;;
30743;SDS011;17486;46.738;7.622;2023-06-14T20:48:08;6.30;;;4.90;;
30743;SDS011;17486;46.738;7.622;2023-06-14T20:50:35;5.50;;;5.00;;
30743;SDS011;17486;46.738;7.622;2023-06-14T20:53:00;6.18;;;4.47;;
30743;SDS011;17486;46.738;7.622;2023-06-14T20:55:26;7.00;;;4.78;;
30743;SDS011;17486;46.738;7.622;2023-06-14T20:57:53;5.38;;;4.32;;
30743;SDS011;17486;46.738;7.622;2023-06-14T21:00:18;9.25;;;5.28;;
30743;SDS011;17486;46.738;7.622;2023-06-14T21:02:44;6.95;;;5.13;;
30743;SDS011;17486;46.738;7.622;2023-06-14T21:05:10;6.90;;;5.43;;
30743;SDS011;17486;46.738;7.622;2023-06-14T21:07:35;6.65;;;5.28;;
30743;SDS011;17486;46.738;7.622;2023-06-14T21:10:01;7.60;;;4.53;;
30743;SDS011;17486;46.738;7.622;2023-06-14T21:12:27;6.05;;;4.70;;
30743;SDS011;17486;46.738;7.622;2023-06-14T21:14:53;8.45;;;4.80;;
30743;SDS011;17486;46.738;7.622;2023-06-14T21:17:18;6.72;;;4.95;;
30743;SDS011;17486;46.738;7.622;2023-06-14T21:19:44;5.03;;;4.43;;